Delamere, North Dakota
Current Conditions -  °F | °C
As of 8:55 AM on Tuesday 21 Oct 2014 (Local Time) from KGWR Reporting Station
Clear Clear  
Wind Chill: 37°   Ceiling: Unl
Heat Index: 43°   Visibility: 10mi
Dew Point: 37°   Wind: 12mph
Humidity: 81%   Direction: 120°ESE
Pressure: 29.99"   Gusts: NA
Location:  46.239°N, 97.3829°W
Report Text: KGWR 211355Z AUTO 12010KT 10SM CLR 06/03 A2999 RMK A01 P000
Loading
Personal Weather Stations






























Interactive Weather Map
Tropical Storm Tracking
New forecast layout! Learn more

10-Day Weather Forecast

Advertisements
Track Severe Weather on mobile